sensor_id;sensor_type;location;lat;lon;timestamp;temperature;humidity
38582;DHT22;24349;53.720;10.014;2023-05-10T00:01:23;14.20;97.70
38582;DHT22;24349;53.720;10.014;2023-05-10T00:03:48;14.20;97.50
38582;DHT22;24349;53.720;10.014;2023-05-10T00:06:14;14.20;97.80
38582;DHT22;24349;53.720;10.014;2023-05-10T00:08:40;14.20;98.40
38582;DHT22;24349;53.720;10.014;2023-05-10T00:11:05;14.20;98.10
38582;DHT22;24349;53.720;10.014;2023-05-10T00:13:31;14.10;98.30
38582;DHT22;24349;53.720;10.014;2023-05-10T00:15:57;14.00;98.50
38582;DHT22;24349;53.720;10.014;2023-05-10T00:18:23;14.00;98.70
38582;DHT22;24349;53.720;10.014;2023-05-10T00:20:48;14.00;98.80
38582;DHT22;24349;53.720;10.014;2023-05-10T00:23:14;14.00;98.70
38582;DHT22;24349;53.720;10.014;2023-05-10T00:25:40;14.00;99.00
38582;DHT22;24349;53.720;10.014;2023-05-10T00:28:05;14.00;99.30
38582;DHT22;24349;53.720;10.014;2023-05-10T00:30:31;13.90;99.30
38582;DHT22;24349;53.720;10.014;2023-05-10T00:32:57;13.90;99.30
38582;DHT22;24349;53.720;10.014;2023-05-10T00:35:22;13.90;99.80
38582;DHT22;24349;53.720;10.014;2023-05-10T00:37:48;13.80;99.90
38582;DHT22;24349;53.720;10.014;2023-05-10T00:40:14;13.80;99.90
38582;DHT22;24349;53.720;10.014;2023-05-10T00:42:39;13.80;99.90
38582;DHT22;24349;53.720;10.014;2023-05-10T00:45:06;13.80;99.90
38582;DHT22;24349;53.720;10.014;2023-05-10T00:47:32;13.80;99.90
38582;DHT22;24349;53.720;10.014;2023-05-10T00:49:59;13.70;99.90
38582;DHT22;24349;53.720;10.014;2023-05-10T00:52:28;13.70;99.90
38582;DHT22;24349;53.720;10.014;2023-05-10T00:54:54;13.70;99.90
38582;DHT22;24349;53.720;10.014;2023-05-10T00:57:21;13.70;99.90
38582;DHT22;24349;53.720;10.014;2023-05-10T00:59:48;13.70;99.90
38582;DHT22;24349;53.720;10.014;2023-05-10T01:02:14;13.60;99.90
38582;DHT22;24349;53.720;10.014;2023-05-10T01:04:39;13.50;99.90
38582;DHT22;24349;53.720;10.014;2023-05-10T01:07:06;13.40;99.90
38582;DHT22;24349;53.720;10.014;2023-05-10T01:09:32;13.40;99.90
38582;DHT22;24349;53.720;10.014;2023-05-10T01:11:58;13.50;99.90
38582;DHT22;24349;53.720;10.014;2023-05-10T01:14:25;13.40;99.90
38582;DHT22;24349;53.720;10.014;2023-05-10T01:16:52;13.40;99.90
38582;DHT22;24349;53.720;10.014;2023-05-10T01:19:25;13.30;99.90
38582;DHT22;24349;53.720;10.014;2023-05-10T01:36:13;13.00;99.90
38582;DHT22;24349;53.720;10.014;2023-05-10T01:38:53;13.00;1.00
38582;DHT22;24349;53.720;10.014;2023-05-10T01:41:40;12.90;1.00
38582;DHT22;24349;53.720;10.014;2023-05-10T01:47:01;12.90;1.00
38582;DHT22;24349;53.720;10.014;2023-05-10T01:49:32;12.90;1.00
38582;DHT22;24349;53.720;10.014;2023-05-10T01:52:07;12.80;1.00
38582;DHT22;24349;53.720;10.014;2023-05-10T01:54:34;12.80;1.00
38582;DHT22;24349;53.720;10.014;2023-05-10T01:57:05;12.70;1.00
38582;DHT22;24349;53.720;10.014;2023-05-10T01:59:34;12.70;1.00
38582;DHT22;24349;53.720;10.014;2023-05-10T02:02:07;12.70;1.00
38582;DHT22;24349;53.720;10.014;2023-05-10T02:04:35;12.70;8.20
38582;DHT22;24349;53.720;10.014;2023-05-10T02:07:03;12.60;53.80
38582;DHT22;24349;53.720;10.014;2023-05-10T02:09:30;12.60;46.70
38582;DHT22;24349;53.720;10.014;2023-05-10T02:11:58;12.60;57.60
38582;DHT22;24349;53.720;10.014;2023-05-10T02:14:26;12.60;67.50
38582;DHT22;24349;53.720;10.014;2023-05-10T02:16:53;12.50;99.90
38582;DHT22;24349;53.720;10.014;2023-05-10T02:19:22;12.50;99.90
38582;DHT22;24349;53.720;10.014;2023-05-10T02:21:49;12.50;99.90
38582;DHT22;24349;53.720;10.014;2023-05-10T02:24:16;12.40;99.90
38582;DHT22;24349;53.720;10.014;2023-05-10T02:26:44;12.40;99.90
38582;DHT22;24349;53.720;10.014;2023-05-10T02:29:11;12.30;99.90
38582;DHT22;24349;53.720;10.014;2023-05-10T02:31:38;12.40;99.90
38582;DHT22;24349;53.720;10.014;2023-05-10T02:34:06;12.40;99.90
38582;DHT22;24349;53.720;10.014;2023-05-10T02:36:33;12.40;99.90
38582;DHT22;24349;53.720;10.014;2023-05-10T02:39:00;12.40;99.90
38582;DHT22;24349;53.720;10.014;2023-05-10T02:41:28;12.30;99.90
38582;DHT22;24349;53.720;10.014;2023-05-10T02:43:56;12.30;99.90
38582;DHT22;24349;53.720;10.014;2023-05-10T02:46:24;12.30;99.90
38582;DHT22;24349;53.720;10.014;2023-05-10T02:48:50;12.20;99.90
38582;DHT22;24349;53.720;10.014;2023-05-10T02:51:16;12.30;99.90
38582;DHT22;24349;53.720;10.014;2023-05-10T02:53:44;12.20;99.90
38582;DHT22;24349;53.720;10.014;2023-05-10T02:56:19;12.30;99.90
38582;DHT22;24349;53.720;10.014;2023-05-10T02:58:47;12.20;99.90
38582;DHT22;24349;53.720;10.014;2023-05-10T03:01:12;12.20;99.90
38582;DHT22;24349;53.720;10.014;2023-05-10T03:03:38;12.10;99.90
38582;DHT22;24349;53.720;10.014;2023-05-10T03:06:03;12.10;1.00
38582;DHT22;24349;53.720;10.014;2023-05-10T03:08:29;12.10;1.00
38582;DHT22;24349;53.720;10.014;2023-05-10T03:11:23;12.10;1.00
38582;DHT22;24349;53.720;10.014;2023-05-10T03:17:00;12.10;1.00
38582;DHT22;24349;53.720;10.014;2023-05-10T03:19:52;12.10;1.00
38582;DHT22;24349;53.720;10.014;2023-05-10T03:22:29;12.00;1.00
38582;DHT22;24349;53.720;10.014;2023-05-10T03:24:56;12.00;1.00
38582;DHT22;24349;53.720;10.014;2023-05-10T03:27:25;12.00;1.00
38582;DHT22;24349;53.720;10.014;2023-05-10T03:29:53;12.00;1.00
38582;DHT22;24349;53.720;10.014;2023-05-10T03:32:19;12.00;1.00
38582;DHT22;24349;53.720;10.014;2023-05-10T03:34:44;12.00;34.10
38582;DHT22;24349;53.720;10.014;2023-05-10T03:37:10;12.00;36.70
38582;DHT22;24349;53.720;10.014;2023-05-10T03:39:35;12.00;96.30
38582;DHT22;24349;53.720;10.014;2023-05-10T03:42:01;12.00;99.90
38582;DHT22;24349;53.720;10.014;2023-05-10T03:44:27;11.90;99.90
38582;DHT22;24349;53.720;10.014;2023-05-10T03:46:53;11.90;99.90
38582;DHT22;24349;53.720;10.014;2023-05-10T03:49:18;11.90;99.90
38582;DHT22;24349;53.720;10.014;2023-05-10T03:51:44;11.90;99.90
38582;DHT22;24349;53.720;10.014;2023-05-10T03:54:09;11.90;99.90
38582;DHT22;24349;53.720;10.014;2023-05-10T03:56:35;11.90;99.90
38582;DHT22;24349;53.720;10.014;2023-05-10T03:59:01;11.90;99.90
38582;DHT22;24349;53.720;10.014;2023-05-10T04:01:26;11.90;99.90
38582;DHT22;24349;53.720;10.014;2023-05-10T04:03:52;11.90;99.90
38582;DHT22;24349;53.720;10.014;2023-05-10T04:06:17;12.00;99.90
38582;DHT22;24349;53.720;10.014;2023-05-10T04:08:43;11.90;99.90
38582;DHT22;24349;53.720;10.014;2023-05-10T04:11:10;12.00;99.90
38582;DHT22;24349;53.720;10.014;2023-05-10T04:13:36;11.90;1.00
38582;DHT22;24349;53.720;10.014;2023-05-10T04:16:02;11.90;99.90
38582;DHT22;24349;53.720;10.014;2023-05-10T04:18:28;12.00;1.00
38582;DHT22;24349;53.720;10.014;2023-05-10T04:20:53;12.00;1.00
38582;DHT22;24349;53.720;10.014;2023-05-10T04:23:19;12.00;99.90
38582;DHT22;24349;53.720;10.014;2023-05-10T04:25:44;12.00;1.00
38582;DHT22;24349;53.720;10.014;2023-05-10T04:28:10;12.00;99.90
38582;DHT22;24349;53.720;10.014;2023-05-10T04:30:36;12.00;99.90
38582;DHT22;24349;53.720;10.014;2023-05-10T04:33:01;12.10;99.90
38582;DHT22;24349;53.720;10.014;2023-05-10T04:35:27;12.10;99.90
38582;DHT22;24349;53.720;10.014;2023-05-10T04:37:53;12.20;99.90
38582;DHT22;24349;53.720;10.014;2023-05-10T04:40:19;12.20;99.90
38582;DHT22;24349;53.720;10.014;2023-05-10T04:42:45;12.20;99.90
38582;DHT22;24349;53.720;10.014;2023-05-10T04:45:11;12.20;99.90
38582;DHT22;24349;53.720;10.014;2023-05-10T04:47:37;12.20;99.90
38582;DHT22;24349;53.720;10.014;2023-05-10T04:50:03;12.30;99.90
38582;DHT22;24349;53.720;10.014;2023-05-10T04:52:29;12.30;99.90
38582;DHT22;24349;53.720;10.014;2023-05-10T04:54:54;12.40;99.90
38582;DHT22;24349;53.720;10.014;2023-05-10T04:57:20;12.40;99.90
38582;DHT22;24349;53.720;10.014;2023-05-10T04:59:46;12.40;99.90
38582;DHT22;24349;53.720;10.014;2023-05-10T05:02:12;12.40;99.90
38582;DHT22;24349;53.720;10.014;2023-05-10T05:04:37;12.50;99.90
38582;DHT22;24349;53.720;10.014;2023-05-10T05:07:03;12.50;99.90
38582;DHT22;24349;53.720;10.014;2023-05-10T05:09:29;12.60;44.70
38582;DHT22;24349;53.720;10.014;2023-05-10T05:11:54;12.70;99.90
38582;DHT22;24349;53.720;10.014;2023-05-10T05:14:20;12.90;79.00
38582;DHT22;24349;53.720;10.014;2023-05-10T05:16:51;13.10;1.00
38582;DHT22;24349;53.720;10.014;2023-05-10T05:19:16;13.30;1.00
38582;DHT22;24349;53.720;10.014;2023-05-10T05:21:42;13.40;99.90
38582;DHT22;24349;53.720;10.014;2023-05-10T05:24:07;13.50;99.90
38582;DHT22;24349;53.720;10.014;2023-05-10T05:26:33;13.50;99.90
38582;DHT22;24349;53.720;10.014;2023-05-10T05:28:59;13.70;99.90
38582;DHT22;24349;53.720;10.014;2023-05-10T05:31:25;14.00;99.90
38582;DHT22;24349;53.720;10.014;2023-05-10T05:33:50;14.10;99.90
38582;DHT22;24349;53.720;10.014;2023-05-10T05:36:16;14.00;99.90
38582;DHT22;24349;53.720;10.014;2023-05-10T05:38:42;14.20;99.90
38582;DHT22;24349;53.720;10.014;2023-05-10T05:41:08;14.20;99.90
38582;DHT22;24349;53.720;10.014;2023-05-10T05:43:34;14.10;99.90
38582;DHT22;24349;53.720;10.014;2023-05-10T05:45:59;14.10;99.90
38582;DHT22;24349;53.720;10.014;2023-05-10T05:48:25;14.30;99.90
38582;DHT22;24349;53.720;10.014;2023-05-10T05:50:54;14.60;99.90
38582;DHT22;24349;53.720;10.014;2023-05-10T05:53:20;14.60;92.20
38582;DHT22;24349;53.720;10.014;2023-05-10T05:55:57;14.80;56.20
38582;DHT22;24349;53.720;10.014;2023-05-10T05:58:23;14.90;49.00
38582;DHT22;24349;53.720;10.014;2023-05-10T06:00:49;15.00;60.70
38582;DHT22;24349;53.720;10.014;2023-05-10T06:03:15;15.00;7.00
38582;DHT22;24349;53.720;10.014;2023-05-10T06:05:41;14.60;1.00
38582;DHT22;24349;53.720;10.014;2023-05-10T06:08:07;14.90;3.50
38582;DHT22;24349;53.720;10.014;2023-05-10T06:10:32;14.90;1.00
38582;DHT22;24349;53.720;10.014;2023-05-10T06:12:58;15.00;1.00
38582;DHT22;24349;53.720;10.014;2023-05-10T06:15:23;15.40;1.00
38582;DHT22;24349;53.720;10.014;2023-05-10T06:17:49;16.00;1.00
38582;DHT22;24349;53.720;10.014;2023-05-10T06:20:15;16.00;1.00
38582;DHT22;24349;53.720;10.014;2023-05-10T06:22:41;16.00;1.00
38582;DHT22;24349;53.720;10.014;2023-05-10T06:25:08;16.30;1.00
38582;DHT22;24349;53.720;10.014;2023-05-10T06:27:33;16.90;1.00
38582;DHT22;24349;53.720;10.014;2023-05-10T06:29:59;17.50;1.00
38582;DHT22;24349;53.720;10.014;2023-05-10T06:32:25;17.10;99.90
38582;DHT22;24349;53.720;10.014;2023-05-10T06:34:50;17.10;99.90
38582;DHT22;24349;53.720;10.014;2023-05-10T06:37:16;17.30;99.90
38582;DHT22;24349;53.720;10.014;2023-05-10T06:39:42;17.10;99.90
38582;DHT22;24349;53.720;10.014;2023-05-10T06:42:07;17.20;99.90
38582;DHT22;24349;53.720;10.014;2023-05-10T06:44:33;17.10;99.90
38582;DHT22;24349;53.720;10.014;2023-05-10T06:46:59;17.40;99.90
38582;DHT22;24349;53.720;10.014;2023-05-10T06:49:24;17.40;99.90
38582;DHT22;24349;53.720;10.014;2023-05-10T06:51:50;17.60;99.90
38582;DHT22;24349;53.720;10.014;2023-05-10T06:54:15;17.50;99.90
38582;DHT22;24349;53.720;10.014;2023-05-10T06:56:41;17.60;99.90
38582;DHT22;24349;53.720;10.014;2023-05-10T06:59:07;17.10;99.90
38582;DHT22;24349;53.720;10.014;2023-05-10T07:01:33;17.60;99.90
38582;DHT22;24349;53.720;10.014;2023-05-10T07:03:58;17.70;99.90
38582;DHT22;24349;53.720;10.014;2023-05-10T07:06:24;17.00;99.90
38582;DHT22;24349;53.720;10.014;2023-05-10T07:08:49;16.50;99.90
38582;DHT22;24349;53.720;10.014;2023-05-10T07:11:15;16.60;99.90
38582;DHT22;24349;53.720;10.014;2023-05-10T07:13:41;16.60;99.90
38582;DHT22;24349;53.720;10.014;2023-05-10T07:16:09;17.00;99.90
38582;DHT22;24349;53.720;10.014;2023-05-10T07:18:35;17.10;99.90
38582;DHT22;24349;53.720;10.014;2023-05-10T07:21:01;18.00;99.90
38582;DHT22;24349;53.720;10.014;2023-05-10T07:23:27;17.90;99.90
38582;DHT22;24349;53.720;10.014;2023-05-10T07:25:52;17.60;99.90
38582;DHT22;24349;53.720;10.014;2023-05-10T07:28:19;17.30;99.90
38582;DHT22;24349;53.720;10.014;2023-05-10T07:30:44;17.80;99.90
38582;DHT22;24349;53.720;10.014;2023-05-10T07:33:11;18.00;99.90
38582;DHT22;24349;53.720;10.014;2023-05-10T07:35:37;17.70;99.90
38582;DHT22;24349;53.720;10.014;2023-05-10T07:38:03;17.80;99.90
38582;DHT22;24349;53.720;10.014;2023-05-10T07:40:28;18.40;99.90
38582;DHT22;24349;53.720;10.014;2023-05-10T07:42:54;18.50;99.90
38582;DHT22;24349;53.720;10.014;2023-05-10T07:45:20;19.00;99.90
38582;DHT22;24349;53.720;10.014;2023-05-10T07:47:46;19.30;99.90
38582;DHT22;24349;53.720;10.014;2023-05-10T07:50:11;19.20;99.90
38582;DHT22;24349;53.720;10.014;2023-05-10T07:52:37;18.90;99.90
38582;DHT22;24349;53.720;10.014;2023-05-10T07:55:03;18.40;99.90
38582;DHT22;24349;53.720;10.014;2023-05-10T07:57:28;18.10;99.90
38582;DHT22;24349;53.720;10.014;2023-05-10T07:59:54;17.90;99.90
38582;DHT22;24349;53.720;10.014;2023-05-10T08:02:20;17.90;99.90
38582;DHT22;24349;53.720;10.014;2023-05-10T08:04:45;18.20;99.90
38582;DHT22;24349;53.720;10.014;2023-05-10T08:07:11;18.00;99.90
38582;DHT22;24349;53.720;10.014;2023-05-10T08:09:36;17.40;99.90
38582;DHT22;24349;53.720;10.014;2023-05-10T08:12:02;17.40;99.90
38582;DHT22;24349;53.720;10.014;2023-05-10T08:14:29;17.80;99.90
38582;DHT22;24349;53.720;10.014;2023-05-10T08:16:55;17.60;99.90
38582;DHT22;24349;53.720;10.014;2023-05-10T08:19:21;17.50;99.90
38582;DHT22;24349;53.720;10.014;2023-05-10T08:21:48;17.60;99.90
38582;DHT22;24349;53.720;10.014;2023-05-10T08:24:13;17.70;99.90
38582;DHT22;24349;53.720;10.014;2023-05-10T08:26:39;17.70;99.90
38582;DHT22;24349;53.720;10.014;2023-05-10T08:29:05;17.60;99.90
38582;DHT22;24349;53.720;10.014;2023-05-10T08:31:31;17.30;99.90
38582;DHT22;24349;53.720;10.014;2023-05-10T08:33:56;17.10;99.90
38582;DHT22;24349;53.720;10.014;2023-05-10T08:36:22;17.00;99.90
38582;DHT22;24349;53.720;10.014;2023-05-10T08:38:53;16.90;99.90
38582;DHT22;24349;53.720;10.014;2023-05-10T08:41:20;16.70;99.90
38582;DHT22;24349;53.720;10.014;2023-05-10T08:43:46;16.60;99.90
38582;DHT22;24349;53.720;10.014;2023-05-10T08:46:15;16.90;99.90
38582;DHT22;24349;53.720;10.014;2023-05-10T08:48:44;17.00;99.90
38582;DHT22;24349;53.720;10.014;2023-05-10T08:51:17;17.30;99.90
38582;DHT22;24349;53.720;10.014;2023-05-10T08:53:43;17.00;99.90
38582;DHT22;24349;53.720;10.014;2023-05-10T08:56:09;17.30;99.90
38582;DHT22;24349;53.720;10.014;2023-05-10T08:58:36;17.40;99.90
38582;DHT22;24349;53.720;10.014;2023-05-10T09:01:02;17.40;99.90
38582;DHT22;24349;53.720;10.014;2023-05-10T09:03:29;17.40;99.90
38582;DHT22;24349;53.720;10.014;2023-05-10T09:05:55;17.30;99.90
38582;DHT22;24349;53.720;10.014;2023-05-10T09:08:25;17.20;99.90
38582;DHT22;24349;53.720;10.014;2023-05-10T09:10:54;17.10;99.90
38582;DHT22;24349;53.720;10.014;2023-05-10T09:13:21;17.30;99.90
38582;DHT22;24349;53.720;10.014;2023-05-10T09:15:47;17.50;99.90
38582;DHT22;24349;53.720;10.014;2023-05-10T09:18:13;17.50;99.90
38582;DHT22;24349;53.720;10.014;2023-05-10T09:20:40;17.40;99.90
38582;DHT22;24349;53.720;10.014;2023-05-10T09:23:06;17.50;99.90
38582;DHT22;24349;53.720;10.014;2023-05-10T09:25:32;17.50;99.90
38582;DHT22;24349;53.720;10.014;2023-05-10T09:27:59;17.50;99.90
38582;DHT22;24349;53.720;10.014;2023-05-10T09:30:28;17.90;99.90
38582;DHT22;24349;53.720;10.014;2023-05-10T09:32:54;17.90;99.90
38582;DHT22;24349;53.720;10.014;2023-05-10T09:35:23;17.70;99.90
38582;DHT22;24349;53.720;10.014;2023-05-10T09:37:52;17.70;99.90
38582;DHT22;24349;53.720;10.014;2023-05-10T09:40:29;17.60;99.90
38582;DHT22;24349;53.720;10.014;2023-05-10T09:43:03;17.60;99.90
38582;DHT22;24349;53.720;10.014;2023-05-10T09:45:31;17.40;99.90
38582;DHT22;24349;53.720;10.014;2023-05-10T09:47:58;17.40;99.90
38582;DHT22;24349;53.720;10.014;2023-05-10T09:50:24;17.30;99.90
38582;DHT22;24349;53.720;10.014;2023-05-10T09:52:55;17.50;99.90
38582;DHT22;24349;53.720;10.014;2023-05-10T09:55:24;17.40;99.90
38582;DHT22;24349;53.720;10.014;2023-05-10T09:57:59;17.20;99.90
38582;DHT22;24349;53.720;10.014;2023-05-10T10:00:25;17.10;99.90
38582;DHT22;24349;53.720;10.014;2023-05-10T10:02:58;16.90;99.90
38582;DHT22;24349;53.720;10.014;2023-05-10T10:05:32;17.00;99.90
38582;DHT22;24349;53.720;10.014;2023-05-10T10:07:58;17.00;99.90
38582;DHT22;24349;53.720;10.014;2023-05-10T10:10:25;17.10;99.90
38582;DHT22;24349;53.720;10.014;2023-05-10T10:12:51;17.00;99.90
38582;DHT22;24349;53.720;10.014;2023-05-10T10:15:17;16.80;99.90
38582;DHT22;24349;53.720;10.014;2023-05-10T10:17:43;17.00;99.90
38582;DHT22;24349;53.720;10.014;2023-05-10T10:20:09;17.00;99.90
38582;DHT22;24349;53.720;10.014;2023-05-10T10:22:36;17.00;99.90
38582;DHT22;24349;53.720;10.014;2023-05-10T10:25:03;16.80;99.90
38582;DHT22;24349;53.720;10.014;2023-05-10T10:30:29;16.60;1.00
38582;DHT22;24349;53.720;10.014;2023-05-10T10:35:47;16.10;1.00
38582;DHT22;24349;53.720;10.014;2023-05-10T10:38:13;15.80;1.00
38582;DHT22;24349;53.720;10.014;2023-05-10T10:40:39;15.60;99.90
38582;DHT22;24349;53.720;10.014;2023-05-10T10:43:24;15.40;1.00
38582;DHT22;24349;53.720;10.014;2023-05-10T10:46:17;15.30;14.80
38582;DHT22;24349;53.720;10.014;2023-05-10T10:51:37;14.80;74.60
38582;DHT22;24349;53.720;10.014;2023-05-10T10:54:09;14.70;95.80
38582;DHT22;24349;53.720;10.014;2023-05-10T10:56:35;14.60;99.90
38582;DHT22;24349;53.720;10.014;2023-05-10T10:59:01;14.60;99.90
38582;DHT22;24349;53.720;10.014;2023-05-10T11:01:35;14.70;99.90
38582;DHT22;24349;53.720;10.014;2023-05-10T11:04:17;14.70;99.90
38582;DHT22;24349;53.720;10.014;2023-05-10T11:06:43;14.70;99.90
38582;DHT22;24349;53.720;10.014;2023-05-10T11:09:11;14.50;99.90
38582;DHT22;24349;53.720;10.014;2023-05-10T11:11:50;14.50;99.90
38582;DHT22;24349;53.720;10.014;2023-05-10T11:14:20;14.40;99.90
38582;DHT22;24349;53.720;10.014;2023-05-10T11:16:46;14.50;99.90
38582;DHT22;24349;53.720;10.014;2023-05-10T11:19:16;14.60;99.90
38582;DHT22;24349;53.720;10.014;2023-05-10T11:21:49;14.70;99.90
38582;DHT22;24349;53.720;10.014;2023-05-10T11:24:15;14.80;99.90
38582;DHT22;24349;53.720;10.014;2023-05-10T11:26:42;14.80;99.90
38582;DHT22;24349;53.720;10.014;2023-05-10T11:29:07;14.70;99.90
38582;DHT22;24349;53.720;10.014;2023-05-10T11:31:38;14.70;99.90
38582;DHT22;24349;53.720;10.014;2023-05-10T11:34:09;14.70;99.90
38582;DHT22;24349;53.720;10.014;2023-05-10T11:36:36;14.80;99.90
38582;DHT22;24349;53.720;10.014;2023-05-10T11:39:02;14.70;99.90
38582;DHT22;24349;53.720;10.014;2023-05-10T11:41:29;14.90;99.90
38582;DHT22;24349;53.720;10.014;2023-05-10T11:43:56;15.10;99.90
38582;DHT22;24349;53.720;10.014;2023-05-10T11:46:26;15.30;99.90
38582;DHT22;24349;53.720;10.014;2023-05-10T11:48:55;15.20;99.90
38582;DHT22;24349;53.720;10.014;2023-05-10T11:51:23;15.10;99.90
38582;DHT22;24349;53.720;10.014;2023-05-10T11:53:51;15.10;99.90
38582;DHT22;24349;53.720;10.014;2023-05-10T11:56:17;15.30;99.90
38582;DHT22;24349;53.720;10.014;2023-05-10T11:58:43;15.20;99.90
38582;DHT22;24349;53.720;10.014;2023-05-10T12:01:09;15.20;99.90
38582;DHT22;24349;53.720;10.014;2023-05-10T12:03:36;15.40;99.90
38582;DHT22;24349;53.720;10.014;2023-05-10T12:06:02;15.60;99.90
38582;DHT22;24349;53.720;10.014;2023-05-10T12:08:29;15.60;99.90
38582;DHT22;24349;53.720;10.014;2023-05-10T12:11:07;15.60;99.90
38582;DHT22;24349;53.720;10.014;2023-05-10T12:13:37;15.50;99.90
38582;DHT22;24349;53.720;10.014;2023-05-10T12:16:25;15.30;99.90
38582;DHT22;24349;53.720;10.014;2023-05-10T12:18:56;15.40;99.90
38582;DHT22;24349;53.720;10.014;2023-05-10T12:21:21;15.40;99.90
38582;DHT22;24349;53.720;10.014;2023-05-10T12:23:54;15.10;99.90
38582;DHT22;24349;53.720;10.014;2023-05-10T12:26:24;15.10;99.90
38582;DHT22;24349;53.720;10.014;2023-05-10T12:28:55;15.00;99.90
38582;DHT22;24349;53.720;10.014;2023-05-10T12:31:20;15.00;99.90
38582;DHT22;24349;53.720;10.014;2023-05-10T12:33:46;15.00;99.90
38582;DHT22;24349;53.720;10.014;2023-05-10T12:36:15;15.00;99.90
38582;DHT22;24349;53.720;10.014;2023-05-10T12:38:42;15.10;99.90
38582;DHT22;24349;53.720;10.014;2023-05-10T12:41:10;15.10;99.90
38582;DHT22;24349;53.720;10.014;2023-05-10T12:43:37;15.20;99.90
38582;DHT22;24349;53.720;10.014;2023-05-10T12:46:16;15.20;99.90
38582;DHT22;24349;53.720;10.014;2023-05-10T12:48:43;15.20;99.90
38582;DHT22;24349;53.720;10.014;2023-05-10T12:51:10;15.10;99.90
38582;DHT22;24349;53.720;10.014;2023-05-10T12:53:38;15.30;99.90
38582;DHT22;24349;53.720;10.014;2023-05-10T12:56:04;15.40;99.90
38582;DHT22;24349;53.720;10.014;2023-05-10T12:58:29;15.60;99.90
38582;DHT22;24349;53.720;10.014;2023-05-10T13:00:55;15.70;99.90
38582;DHT22;24349;53.720;10.014;2023-05-10T13:03:22;15.90;99.90
38582;DHT22;24349;53.720;10.014;2023-05-10T13:05:48;16.20;99.90
38582;DHT22;24349;53.720;10.014;2023-05-10T13:08:13;16.00;99.90
38582;DHT22;24349;53.720;10.014;2023-05-10T13:10:39;16.10;99.90
38582;DHT22;24349;53.720;10.014;2023-05-10T13:13:05;16.20;99.90
38582;DHT22;24349;53.720;10.014;2023-05-10T13:15:31;16.00;99.90
38582;DHT22;24349;53.720;10.014;2023-05-10T13:17:57;16.00;99.90
38582;DHT22;24349;53.720;10.014;2023-05-10T13:20:23;16.00;99.90
38582;DHT22;24349;53.720;10.014;2023-05-10T13:22:48;15.90;99.90
38582;DHT22;24349;53.720;10.014;2023-05-10T13:25:14;16.00;99.90
38582;DHT22;24349;53.720;10.014;2023-05-10T13:27:40;16.40;99.90
38582;DHT22;24349;53.720;10.014;2023-05-10T13:30:06;16.60;99.90
38582;DHT22;24349;53.720;10.014;2023-05-10T13:32:33;16.50;99.90
38582;DHT22;24349;53.720;10.014;2023-05-10T13:34:58;16.80;99.90
38582;DHT22;24349;53.720;10.014;2023-05-10T13:37:24;16.90;99.90
38582;DHT22;24349;53.720;10.014;2023-05-10T13:39:49;16.90;75.80
38582;DHT22;24349;53.720;10.014;2023-05-10T13:42:15;17.00;71.80
38582;DHT22;24349;53.720;10.014;2023-05-10T13:44:41;17.10;90.60
38582;DHT22;24349;53.720;10.014;2023-05-10T13:47:06;17.20;93.30
38582;DHT22;24349;53.720;10.014;2023-05-10T13:49:32;17.50;91.60
38582;DHT22;24349;53.720;10.014;2023-05-10T13:51:59;18.10;92.20
38582;DHT22;24349;53.720;10.014;2023-05-10T13:54:26;18.30;60.80
38582;DHT22;24349;53.720;10.014;2023-05-10T13:56:54;18.20;58.80
38582;DHT22;24349;53.720;10.014;2023-05-10T13:59:20;17.90;43.50
38582;DHT22;24349;53.720;10.014;2023-05-10T14:01:45;17.90;45.90
38582;DHT22;24349;53.720;10.014;2023-05-10T14:04:11;17.90;71.50
38582;DHT22;24349;53.720;10.014;2023-05-10T14:06:37;17.50;50.40
38582;DHT22;24349;53.720;10.014;2023-05-10T14:09:03;17.40;66.60
38582;DHT22;24349;53.720;10.014;2023-05-10T14:11:28;17.50;90.00
38582;DHT22;24349;53.720;10.014;2023-05-10T14:13:54;17.10;71.10
38582;DHT22;24349;53.720;10.014;2023-05-10T14:16:20;17.00;90.90
38582;DHT22;24349;53.720;10.014;2023-05-10T14:18:46;17.00;89.10
38582;DHT22;24349;53.720;10.014;2023-05-10T14:21:12;17.00;90.00
38582;DHT22;24349;53.720;10.014;2023-05-10T14:23:38;17.20;79.60
38582;DHT22;24349;53.720;10.014;2023-05-10T14:26:04;17.20;64.30
38582;DHT22;24349;53.720;10.014;2023-05-10T14:28:30;17.20;70.50
38582;DHT22;24349;53.720;10.014;2023-05-10T14:30:56;17.10;93.40
38582;DHT22;24349;53.720;10.014;2023-05-10T14:33:21;16.90;84.40
38582;DHT22;24349;53.720;10.014;2023-05-10T14:35:47;16.90;93.40
38582;DHT22;24349;53.720;10.014;2023-05-10T14:38:14;16.90;65.40
38582;DHT22;24349;53.720;10.014;2023-05-10T14:40:40;17.00;94.90
38582;DHT22;24349;53.720;10.014;2023-05-10T14:43:05;16.90;70.60
38582;DHT22;24349;53.720;10.014;2023-05-10T14:45:31;17.00;90.90
38582;DHT22;24349;53.720;10.014;2023-05-10T14:47:57;17.10;95.60
38582;DHT22;24349;53.720;10.014;2023-05-10T14:50:23;17.10;82.60
38582;DHT22;24349;53.720;10.014;2023-05-10T14:52:49;17.00;93.20
38582;DHT22;24349;53.720;10.014;2023-05-10T14:55:15;17.20;95.40
38582;DHT22;24349;53.720;10.014;2023-05-10T14:57:41;17.20;80.20
38582;DHT22;24349;53.720;10.014;2023-05-10T15:00:07;17.30;86.90
38582;DHT22;24349;53.720;10.014;2023-05-10T15:02:33;17.30;87.40
38582;DHT22;24349;53.720;10.014;2023-05-10T15:04:58;17.10;75.20
38582;DHT22;24349;53.720;10.014;2023-05-10T15:07:24;17.00;93.80
38582;DHT22;24349;53.720;10.014;2023-05-10T15:09:50;16.70;80.20
38582;DHT22;24349;53.720;10.014;2023-05-10T15:12:17;16.70;94.50
38582;DHT22;24349;53.720;10.014;2023-05-10T15:14:43;16.80;86.80
38582;DHT22;24349;53.720;10.014;2023-05-10T15:17:09;16.80;79.40
38582;DHT22;24349;53.720;10.014;2023-05-10T15:19:35;16.90;85.90
38582;DHT22;24349;53.720;10.014;2023-05-10T15:22:01;17.20;64.50
38582;DHT22;24349;53.720;10.014;2023-05-10T15:24:27;17.30;68.30
38582;DHT22;24349;53.720;10.014;2023-05-10T15:26:53;17.30;99.90
38582;DHT22;24349;53.720;10.014;2023-05-10T15:29:19;17.30;79.80
38582;DHT22;24349;53.720;10.014;2023-05-10T15:31:47;17.30;99.90
38582;DHT22;24349;53.720;10.014;2023-05-10T15:34:14;17.30;99.90
38582;DHT22;24349;53.720;10.014;2023-05-10T15:36:39;17.50;99.90
38582;DHT22;24349;53.720;10.014;2023-05-10T15:39:05;17.60;99.90
38582;DHT22;24349;53.720;10.014;2023-05-10T15:41:31;17.60;99.90
38582;DHT22;24349;53.720;10.014;2023-05-10T15:43:57;17.40;99.90
38582;DHT22;24349;53.720;10.014;2023-05-10T15:46:25;17.40;99.90